createdAt,value
2017-08-27T00:01:24.915Z,16.00
2017-08-27T00:03:51.389Z,15.57
2017-08-27T00:06:17.799Z,17.43
2017-08-27T00:08:44.180Z,16.13
2017-08-27T00:11:10.577Z,16.57
2017-08-27T00:13:37.008Z,16.50
2017-08-27T00:16:03.450Z,16.00
2017-08-27T00:18:29.843Z,16.80
2017-08-27T00:20:56.255Z,16.77
2017-08-27T00:23:22.732Z,15.90
2017-08-27T00:25:49.131Z,15.20
2017-08-27T00:28:15.506Z,15.50
2017-08-27T00:30:41.891Z,17.00
2017-08-27T00:33:08.383Z,15.80
2017-08-27T00:35:34.771Z,14.73
2017-08-27T00:38:01.172Z,15.80
2017-08-27T00:40:27.716Z,16.60
2017-08-27T00:42:54.227Z,16.30
2017-08-27T00:45:20.635Z,15.33
2017-08-27T00:47:47.191Z,15.03
2017-08-27T00:50:13.619Z,16.10
2017-08-27T00:52:40.130Z,16.17
2017-08-27T00:55:06.577Z,15.53
2017-08-27T00:57:33.001Z,16.40
2017-08-27T00:59:59.396Z,15.83
2017-08-27T01:02:25.899Z,15.63
2017-08-27T01:04:52.315Z,14.70
2017-08-27T01:07:18.778Z,16.20
2017-08-27T01:09:45.179Z,16.40
2017-08-27T01:12:11.571Z,15.07
2017-08-27T01:14:38.011Z,16.47
2017-08-27T01:17:04.391Z,16.57
2017-08-27T01:19:30.827Z,15.60
2017-08-27T01:21:57.337Z,15.20
2017-08-27T01:24:23.846Z,17.43
2017-08-27T01:26:50.239Z,16.73
2017-08-27T01:29:16.620Z,15.70
2017-08-27T01:31:43.017Z,15.47
2017-08-27T01:34:09.392Z,15.57
2017-08-27T01:36:35.772Z,17.70
2017-08-27T01:39:02.235Z,16.27
2017-08-27T01:41:28.622Z,15.37
2017-08-27T01:43:55.102Z,16.83
2017-08-27T01:46:21.512Z,16.30
2017-08-27T01:48:47.899Z,14.73
2017-08-27T01:51:14.419Z,15.03
2017-08-27T01:53:40.846Z,17.60
2017-08-27T01:56:07.247Z,16.47
2017-08-27T01:58:33.646Z,17.67
2017-08-27T02:01:07.130Z,15.10
2017-08-27T02:03:33.543Z,15.80
2017-08-27T02:05:59.947Z,15.60
2017-08-27T02:08:26.324Z,16.37
2017-08-27T02:10:52.759Z,15.33
2017-08-27T02:13:19.135Z,15.67
2017-08-27T02:15:46.248Z,16.07
2017-08-27T02:18:12.679Z,15.60
2017-08-27T02:20:39.060Z,14.80
2017-08-27T02:23:05.503Z,15.20
2017-08-27T02:25:31.902Z,16.20
2017-08-27T02:27:58.283Z,15.40
2017-08-27T02:30:24.683Z,14.07
2017-08-27T02:32:51.132Z,15.80
2017-08-27T02:35:17.532Z,15.77
2017-08-27T02:37:43.899Z,15.13
2017-08-27T02:40:10.291Z,16.30
2017-08-27T02:42:36.802Z,15.73
2017-08-27T02:45:03.200Z,15.30
2017-08-27T02:47:29.588Z,15.53
2017-08-27T02:49:55.995Z,16.53
2017-08-27T02:52:22.400Z,15.50
2017-08-27T02:54:49.147Z,14.97
2017-08-27T02:57:15.556Z,14.87
2017-08-27T02:59:41.935Z,14.70
2017-08-27T03:02:08.350Z,15.53
2017-08-27T03:04:34.738Z,16.23
2017-08-27T03:07:01.147Z,16.60
2017-08-27T03:09:27.522Z,14.37
2017-08-27T03:11:53.996Z,17.00
2017-08-27T03:14:20.382Z,16.13
2017-08-27T03:16:46.763Z,16.97
2017-08-27T03:19:13.288Z,14.73
2017-08-27T03:21:39.691Z,17.70
2017-08-27T03:24:06.059Z,19.17
2017-08-27T03:26:32.493Z,17.93
2017-08-27T03:28:58.856Z,16.43
2017-08-27T03:31:25.280Z,16.97
2017-08-27T03:33:51.788Z,16.83
2017-08-27T03:36:18.239Z,15.43
2017-08-27T03:38:44.618Z,15.93
2017-08-27T03:41:10.998Z,16.43
2017-08-27T03:43:37.527Z,16.23
2017-08-27T03:46:03.940Z,15.00
2017-08-27T03:48:30.347Z,14.40
2017-08-27T03:50:56.715Z,16.23
2017-08-27T03:53:23.152Z,12.80
2017-08-27T03:55:49.565Z,13.23
2017-08-27T03:58:15.963Z,13.60
2017-08-27T04:00:42.473Z,13.83
2017-08-27T04:03:08.953Z,14.00
2017-08-27T04:05:35.374Z,13.13
2017-08-27T04:08:01.793Z,12.83
2017-08-27T04:10:28.203Z,13.57
2017-08-27T04:12:54.711Z,13.17
2017-08-27T04:15:21.076Z,13.60
2017-08-27T04:17:48.219Z,12.90
2017-08-27T04:20:14.603Z,12.50
2017-08-27T04:22:42.054Z,12.73
2017-08-27T04:25:08.452Z,11.33
2017-08-27T04:27:34.844Z,13.07
2017-08-27T04:30:01.260Z,12.53
2017-08-27T04:32:27.739Z,12.60
2017-08-27T04:34:54.121Z,12.73
2017-08-27T04:37:20.534Z,11.33
2017-08-27T04:39:46.959Z,11.50
2017-08-27T04:42:13.418Z,12.90
2017-08-27T04:44:39.828Z,14.40
2017-08-27T04:47:06.220Z,12.10
2017-08-27T04:49:32.618Z,10.80
2017-08-27T04:51:59.043Z,12.73
2017-08-27T04:54:25.427Z,13.07
2017-08-27T04:56:51.854Z,12.43
2017-08-27T04:59:18.226Z,13.93
2017-08-27T05:01:44.620Z,12.90
2017-08-27T05:04:11.021Z,11.20
2017-08-27T05:06:37.438Z,11.10
2017-08-27T05:09:03.887Z,10.83
2017-08-27T05:11:30.262Z,13.13
2017-08-27T05:13:56.742Z,16.03
2017-08-27T05:16:23.159Z,11.53
2017-08-27T05:18:49.562Z,10.83
2017-08-27T05:21:16.024Z,12.17
2017-08-27T05:23:42.475Z,10.70
2017-08-27T05:26:08.855Z,10.80
2017-08-27T05:28:35.286Z,11.73
2017-08-27T05:31:01.703Z,10.77
2017-08-27T05:33:28.103Z,10.10
2017-08-27T05:35:54.572Z,13.53
2017-08-27T05:38:21.066Z,13.30
2017-08-27T05:40:47.587Z,12.13
2017-08-27T05:43:14.031Z,12.07
2017-08-27T05:45:40.420Z,12.77
2017-08-27T05:48:06.839Z,10.93
2017-08-27T05:50:33.215Z,11.77
2017-08-27T05:52:59.702Z,12.50
2017-08-27T05:55:26.118Z,12.60
2017-08-27T05:57:52.503Z,14.53
2017-08-27T06:00:18.923Z,11.80
2017-08-27T06:02:45.411Z,11.70
2017-08-27T06:05:11.815Z,11.37
2017-08-27T06:07:38.219Z,11.37
2017-08-27T06:10:04.651Z,10.93
2017-08-27T06:12:31.160Z,12.80
2017-08-27T06:14:57.552Z,12.40
2017-08-27T06:17:23.927Z,10.37
2017-08-27T06:19:50.337Z,10.57
2017-08-27T06:22:16.787Z,10.20
2017-08-27T06:24:43.142Z,9.90
2017-08-27T06:27:09.587Z,12.20
2017-08-27T06:29:35.983Z,10.63
2017-08-27T06:32:02.415Z,9.90
2017-08-27T06:34:28.795Z,12.27
2017-08-27T06:36:55.936Z,10.77
2017-08-27T06:39:23.118Z,10.37
2017-08-27T06:41:49.558Z,11.07
2017-08-27T06:44:15.980Z,11.17
2017-08-27T06:46:42.378Z,10.03
2017-08-27T06:49:09.402Z,10.17
2017-08-27T06:51:35.791Z,10.70
2017-08-27T06:54:02.279Z,9.97
2017-08-27T06:56:28.659Z,13.27
2017-08-27T06:58:55.093Z,9.30
2017-08-27T07:01:21.520Z,12.23
2017-08-27T07:03:47.992Z,9.20
2017-08-27T07:06:14.376Z,11.33
2017-08-27T07:08:40.756Z,10.67
2017-08-27T07:11:07.159Z,10.83
2017-08-27T07:13:33.575Z,9.07
2017-08-27T07:15:59.952Z,10.73
2017-08-27T07:18:26.340Z,11.70
2017-08-27T07:20:52.756Z,9.53
2017-08-27T07:23:19.253Z,10.13
2017-08-27T07:25:45.631Z,9.40
2017-08-27T07:28:12.049Z,8.70
2017-08-27T07:30:38.449Z,11.67
2017-08-27T07:33:04.849Z,11.50
2017-08-27T07:35:31.266Z,9.57
2017-08-27T07:37:57.671Z,15.40
2017-08-27T07:40:24.052Z,13.13
2017-08-27T07:42:50.500Z,9.90
2017-08-27T07:45:16.882Z,8.97
2017-08-27T07:47:43.290Z,8.17
2017-08-27T07:50:09.698Z,8.57
2017-08-27T07:52:36.119Z,9.40
2017-08-27T07:55:02.526Z,8.80
2017-08-27T07:57:28.913Z,8.80
2017-08-27T07:59:55.471Z,9.50
2017-08-27T08:02:21.960Z,11.43
2017-08-27T08:04:48.343Z,10.40
2017-08-27T08:07:14.801Z,9.83
2017-08-27T08:09:41.211Z,8.73
2017-08-27T08:12:07.704Z,9.03
2017-08-27T08:14:34.816Z,9.90
2017-08-27T08:17:01.247Z,10.07
2017-08-27T08:19:27.670Z,7.40
2017-08-27T08:21:54.165Z,8.60
2017-08-27T08:24:20.553Z,8.87
2017-08-27T08:26:46.921Z,8.20
2017-08-27T08:29:13.336Z,8.13
2017-08-27T08:31:39.724Z,8.27
2017-08-27T08:34:06.123Z,8.77
2017-08-27T08:36:32.539Z,8.27
2017-08-27T08:38:58.926Z,9.20
2017-08-27T08:41:25.335Z,8.20
2017-08-27T08:43:51.814Z,8.67
2017-08-27T08:46:18.192Z,7.43
2017-08-27T08:48:44.606Z,10.57
2017-08-27T08:51:10.992Z,8.43
2017-08-27T08:53:37.486Z,7.70
2017-08-27T08:56:03.875Z,11.07
2017-08-27T08:58:30.324Z,9.23
2017-08-27T09:00:56.709Z,6.87
2017-08-27T09:03:23.254Z,12.23
2017-08-27T09:05:49.692Z,8.57
2017-08-27T09:08:16.078Z,7.90
2017-08-27T09:10:42.467Z,9.93
2017-08-27T09:13:08.988Z,12.60
2017-08-27T09:15:35.494Z,13.20
2017-08-27T09:18:01.868Z,7.90
2017-08-27T09:20:28.383Z,8.40
2017-08-27T09:22:54.975Z,11.53
2017-08-27T09:25:21.352Z,14.60
2017-08-27T09:27:47.786Z,13.53
2017-08-27T09:30:14.250Z,8.47
2017-08-27T09:32:40.703Z,8.90
2017-08-27T09:35:07.125Z,10.07
2017-08-27T09:37:33.595Z,8.80
2017-08-27T09:39:59.998Z,10.07
2017-08-27T09:42:26.475Z,11.80
2017-08-27T09:44:52.904Z,8.40
2017-08-27T09:47:19.397Z,8.80
2017-08-27T09:49:45.767Z,10.10
2017-08-27T09:52:12.252Z,9.77
2017-08-27T09:54:38.660Z,8.90
2017-08-27T09:57:05.127Z,8.63
2017-08-27T09:59:31.592Z,8.57
2017-08-27T10:01:58.139Z,9.83
2017-08-27T10:04:24.571Z,9.97
2017-08-27T10:06:50.943Z,13.07
2017-08-27T10:09:17.319Z,9.10
2017-08-27T10:11:43.762Z,9.70
2017-08-27T10:14:10.130Z,7.20
2017-08-27T10:16:36.519Z,9.40
2017-08-27T10:19:02.967Z,8.80
2017-08-27T10:21:29.428Z,9.97
2017-08-27T10:23:55.915Z,8.67
2017-08-27T10:26:22.369Z,8.70
2017-08-27T10:28:48.756Z,9.70
2017-08-27T10:31:15.307Z,9.20
2017-08-27T10:33:41.858Z,8.90
2017-08-27T10:36:08.247Z,9.20
2017-08-27T10:38:34.751Z,7.77
2017-08-27T10:41:01.141Z,8.13
2017-08-27T10:43:27.563Z,8.87
2017-08-27T10:45:54.028Z,8.70
2017-08-27T10:48:20.403Z,9.67
2017-08-27T10:50:46.844Z,8.77
2017-08-27T10:53:13.299Z,9.37
2017-08-27T10:55:39.664Z,8.40
2017-08-27T10:58:06.060Z,7.77
2017-08-27T11:00:32.440Z,8.13
2017-08-27T11:02:58.912Z,8.63
2017-08-27T11:05:25.336Z,9.90
2017-08-27T11:07:51.719Z,7.63
2017-08-27T11:10:18.111Z,7.33
2017-08-27T11:12:44.523Z,9.17
2017-08-27T11:15:10.945Z,8.53
2017-08-27T11:17:37.354Z,9.37
2017-08-27T11:20:03.751Z,8.47
2017-08-27T11:22:30.191Z,7.63
2017-08-27T11:24:57.449Z,8.50
2017-08-27T11:27:23.912Z,10.53
2017-08-27T11:29:50.318Z,8.57
2017-08-27T11:32:16.731Z,8.63
2017-08-27T11:34:43.094Z,7.57
2017-08-27T11:37:09.517Z,8.17
2017-08-27T11:39:35.919Z,10.57
2017-08-27T11:42:02.383Z,8.73
2017-08-27T11:44:28.792Z,8.17
2017-08-27T11:46:55.203Z,7.00
2017-08-27T11:49:21.599Z,7.57
2017-08-27T11:51:48.004Z,7.63
2017-08-27T11:54:14.402Z,8.90
2017-08-27T11:56:41.703Z,8.97
2017-08-27T11:59:08.091Z,7.90
2017-08-27T12:01:34.476Z,8.23
2017-08-27T12:04:01.108Z,8.43
2017-08-27T12:06:27.508Z,10.87
2017-08-27T12:08:53.923Z,7.70
2017-08-27T12:11:20.372Z,10.03
2017-08-27T12:13:46.792Z,7.67
2017-08-27T12:16:13.211Z,7.73
2017-08-27T12:18:39.753Z,7.70
2017-08-27T12:21:06.155Z,7.77
2017-08-27T12:23:32.632Z,8.20
2017-08-27T12:25:59.039Z,7.37
2017-08-27T12:28:25.428Z,8.30
2017-08-27T12:30:51.842Z,8.70
2017-08-27T12:33:18.272Z,8.07
2017-08-27T12:35:44.727Z,7.07
2017-08-27T12:38:11.135Z,6.90
2017-08-27T12:40:37.576Z,7.70
2017-08-27T12:43:04.023Z,7.33
2017-08-27T12:45:30.400Z,7.90
2017-08-27T12:47:56.800Z,7.87
2017-08-27T12:50:23.172Z,6.60
2017-08-27T12:52:49.627Z,7.37
2017-08-27T12:55:16.046Z,9.70
2017-08-27T12:57:42.456Z,8.50
2017-08-27T13:00:09.011Z,10.77
2017-08-27T13:02:35.471Z,9.27
2017-08-27T13:05:01.868Z,7.90
2017-08-27T13:07:28.287Z,7.23
2017-08-27T13:09:54.679Z,9.07
2017-08-27T13:12:21.082Z,7.70
2017-08-27T13:14:47.614Z,7.93
2017-08-27T13:17:13.992Z,8.90
2017-08-27T13:19:40.379Z,9.90
2017-08-27T13:22:06.830Z,6.83
2017-08-27T13:24:33.239Z,7.13
2017-08-27T13:26:59.682Z,6.50
2017-08-27T13:29:26.135Z,8.13
2017-08-27T13:31:52.548Z,8.83
2017-08-27T13:34:18.962Z,10.53
2017-08-27T13:36:45.340Z,7.50
2017-08-27T13:39:11.728Z,7.70
2017-08-27T13:41:38.143Z,7.17
2017-08-27T13:44:04.614Z,9.03
2017-08-27T13:46:30.990Z,8.57
2017-08-27T13:48:57.436Z,8.97
2017-08-27T13:51:23.805Z,8.43
2017-08-27T13:53:50.287Z,7.80
2017-08-27T13:56:16.670Z,7.07
2017-08-27T13:58:43.059Z,8.03
2017-08-27T14:01:09.479Z,6.80
2017-08-27T14:03:35.852Z,7.37
2017-08-27T14:06:02.271Z,7.97
2017-08-27T14:08:28.654Z,8.03
2017-08-27T14:10:55.124Z,7.00
2017-08-27T14:13:21.603Z,6.93
2017-08-27T14:15:47.991Z,6.07
2017-08-27T14:18:14.407Z,6.77
2017-08-27T14:20:40.792Z,8.70
2017-08-27T14:23:07.311Z,11.30
2017-08-27T14:25:33.726Z,7.70
2017-08-27T14:28:00.115Z,6.47
2017-08-27T14:30:26.523Z,7.23
2017-08-27T14:32:52.997Z,7.73
2017-08-27T14:35:19.403Z,9.00
2017-08-27T14:37:45.786Z,7.77
2017-08-27T14:40:12.196Z,7.37
2017-08-27T14:42:38.578Z,9.53
2017-08-27T14:45:04.957Z,7.90
2017-08-27T14:47:31.389Z,8.03
2017-08-27T14:49:57.787Z,9.50
2017-08-27T14:52:24.221Z,9.10
2017-08-27T14:54:50.623Z,8.70
2017-08-27T14:57:17.165Z,7.97
2017-08-27T14:59:43.551Z,8.67
2017-08-27T15:02:09.959Z,8.30
2017-08-27T15:04:36.360Z,8.47
2017-08-27T15:07:02.728Z,8.17
2017-08-27T15:09:29.139Z,7.67
2017-08-27T15:11:55.613Z,7.90
2017-08-27T15:14:22.633Z,8.20
2017-08-27T15:16:49.028Z,7.73
2017-08-27T15:19:15.418Z,7.80
2017-08-27T15:21:41.831Z,10.70
2017-08-27T15:24:08.303Z,7.10
2017-08-27T15:26:34.791Z,9.43
2017-08-27T15:29:01.211Z,8.30
2017-08-27T15:31:27.597Z,10.83
2017-08-27T15:33:54.112Z,10.30
2017-08-27T15:36:20.530Z,7.97
2017-08-27T15:38:46.947Z,9.03
2017-08-27T15:41:13.359Z,8.77
2017-08-27T15:43:40.563Z,9.13
2017-08-27T15:46:06.946Z,8.67
2017-08-27T15:48:33.348Z,9.43
2017-08-27T15:50:59.731Z,9.20
2017-08-27T15:53:26.208Z,8.03
2017-08-27T15:55:52.605Z,8.33
2017-08-27T15:58:19.067Z,7.53
2017-08-27T16:00:45.507Z,7.20
2017-08-27T16:03:11.909Z,9.00
2017-08-27T16:05:38.297Z,13.13
2017-08-27T16:08:04.712Z,6.50
2017-08-27T16:10:31.084Z,10.03
2017-08-27T16:12:57.555Z,8.53
2017-08-27T16:15:23.990Z,9.67
2017-08-27T16:17:50.383Z,8.33
2017-08-27T16:20:16.808Z,8.40
2017-08-27T16:22:43.295Z,7.20
2017-08-27T16:25:09.742Z,8.27
2017-08-27T16:27:36.163Z,7.10
2017-08-27T16:30:02.640Z,10.50
2017-08-27T16:32:29.143Z,8.07
2017-08-27T16:34:55.616Z,7.93
2017-08-27T16:37:22.033Z,7.30
2017-08-27T16:39:48.432Z,8.80
2017-08-27T16:42:14.909Z,6.80
2017-08-27T16:44:41.322Z,6.33
2017-08-27T16:47:19.959Z,7.30
2017-08-27T16:49:46.379Z,12.30
2017-08-27T16:52:12.906Z,6.00
2017-08-27T16:54:39.316Z,6.70
2017-08-27T16:57:05.731Z,6.53
2017-08-27T16:59:32.120Z,12.23
2017-08-27T17:01:58.618Z,6.90
2017-08-27T17:04:25.017Z,7.07
2017-08-27T17:06:51.436Z,6.03
2017-08-27T17:09:17.863Z,7.30
2017-08-27T17:11:44.308Z,10.20
2017-08-27T17:14:10.719Z,8.10
2017-08-27T17:16:37.147Z,8.63
2017-08-27T17:19:03.599Z,6.57
2017-08-27T17:21:30.010Z,7.17
2017-08-27T17:23:56.523Z,9.80
2017-08-27T17:26:22.955Z,8.33
2017-08-27T17:28:49.356Z,6.90
2017-08-27T17:31:15.807Z,7.40
2017-08-27T17:33:42.351Z,8.30
2017-08-27T17:36:08.791Z,7.40
2017-08-27T17:38:35.234Z,7.00
2017-08-27T17:41:01.667Z,7.50
2017-08-27T17:43:28.216Z,7.40
2017-08-27T17:45:54.624Z,6.90
2017-08-27T17:48:21.048Z,7.47
2017-08-27T17:50:47.527Z,6.10
2017-08-27T17:53:14.049Z,6.20
2017-08-27T17:55:40.442Z,7.70
2017-08-27T17:58:06.875Z,6.50
2017-08-27T18:00:33.292Z,7.13
2017-08-27T18:02:59.763Z,7.43
2017-08-27T18:05:26.175Z,5.70
2017-08-27T18:07:52.626Z,7.00
2017-08-27T18:10:19.043Z,8.17
2017-08-27T18:12:45.510Z,6.53
2017-08-27T18:15:11.960Z,6.10
2017-08-27T18:17:38.386Z,11.03
2017-08-27T18:20:04.792Z,6.07
2017-08-27T18:22:31.191Z,6.87
2017-08-27T18:24:57.633Z,17.23
2017-08-27T18:27:24.217Z,13.20
2017-08-27T18:29:50.616Z,13.17
2017-08-27T18:32:17.049Z,14.27
2017-08-27T18:34:43.488Z,8.87
2017-08-27T18:37:09.931Z,7.63
2017-08-27T18:39:36.412Z,15.33
2017-08-27T18:42:02.893Z,8.23
2017-08-27T18:44:29.344Z,8.57
2017-08-27T18:46:55.735Z,9.87
2017-08-27T18:49:22.169Z,9.10
2017-08-27T18:51:48.647Z,9.40
2017-08-27T18:54:15.116Z,12.00
2017-08-27T18:56:41.537Z,8.67
2017-08-27T18:59:07.992Z,9.90
2017-08-27T19:01:34.375Z,8.20
2017-08-27T19:04:01.111Z,8.57
2017-08-27T19:06:28.121Z,8.33
2017-08-27T19:08:54.539Z,7.80
2017-08-27T19:11:21.047Z,9.60
2017-08-27T19:13:47.497Z,8.13
2017-08-27T19:16:14.563Z,10.57
2017-08-27T19:18:41.164Z,15.17
2017-08-27T19:21:07.636Z,7.70
2017-08-27T19:23:34.047Z,14.10
2017-08-27T19:26:00.451Z,13.27
2017-08-27T19:28:26.862Z,13.33
2017-08-27T19:30:53.312Z,10.80
2017-08-27T19:33:19.787Z,8.33
2017-08-27T19:35:46.195Z,7.60
2017-08-27T19:38:12.715Z,12.83
2017-08-27T19:40:39.103Z,12.10
2017-08-27T19:43:05.526Z,9.67
2017-08-27T19:45:31.955Z,8.50
2017-08-27T19:47:58.343Z,7.90
2017-08-27T19:50:24.818Z,7.93
2017-08-27T19:52:51.440Z,8.60
2017-08-27T19:55:17.924Z,7.77
2017-08-27T19:57:44.291Z,9.00
2017-08-27T20:00:10.701Z,7.07
2017-08-27T20:02:37.235Z,7.53
2017-08-27T20:05:03.663Z,7.17
2017-08-27T20:07:30.035Z,10.90
2017-08-27T20:09:56.487Z,8.30
2017-08-27T20:12:22.923Z,10.60
2017-08-27T20:14:49.335Z,8.57
2017-08-27T20:17:15.743Z,9.10
2017-08-27T20:19:42.115Z,12.07
2017-08-27T20:22:08.583Z,7.07
2017-08-27T20:24:34.961Z,7.70
2017-08-27T20:27:01.375Z,7.47
2017-08-27T20:29:27.800Z,8.77
2017-08-27T20:31:54.215Z,6.97
2017-08-27T20:34:20.736Z,7.00
2017-08-27T20:36:47.139Z,6.97
2017-08-27T20:39:20.568Z,11.57
2017-08-27T20:41:46.956Z,8.93
2017-08-27T22:06:16.887Z,6.27
2017-08-27T22:08:43.300Z,8.70
2017-08-27T22:11:16.815Z,7.07
2017-08-27T22:13:43.312Z,9.87
2017-08-27T22:16:09.689Z,10.90
2017-08-27T22:18:36.097Z,8.37
2017-08-27T22:21:02.504Z,12.10
2017-08-27T22:23:28.931Z,8.00
2017-08-27T22:25:55.356Z,8.33
2017-08-27T22:28:21.723Z,10.73
2017-08-27T22:30:48.103Z,8.77
2017-08-27T22:33:15.290Z,7.43
2017-08-27T22:35:41.715Z,6.83
2017-08-27T22:38:08.124Z,10.20
2017-08-27T22:40:34.499Z,7.67
2017-08-27T22:43:00.968Z,6.40
2017-08-27T22:45:27.386Z,6.20
2017-08-27T22:47:53.795Z,7.30
2017-08-27T22:50:20.156Z,7.90
2017-08-27T22:52:46.638Z,6.10
2017-08-27T22:55:13.041Z,7.70
2017-08-27T22:57:39.474Z,7.80
2017-08-27T23:00:05.940Z,7.87
2017-08-27T23:02:32.422Z,6.77
2017-08-27T23:04:58.812Z,6.50
2017-08-27T23:07:25.210Z,7.37
2017-08-27T23:09:51.622Z,7.00
2017-08-27T23:12:18.102Z,7.13
2017-08-27T23:14:44.551Z,7.93
2017-08-27T23:17:10.921Z,6.70
2017-08-27T23:19:37.302Z,7.90
2017-08-27T23:22:03.759Z,11.30
2017-08-27T23:24:30.135Z,7.30
2017-08-27T23:26:56.576Z,9.13
2017-08-27T23:29:23.851Z,11.23
2017-08-27T23:31:50.276Z,8.70
2017-08-27T23:34:17.490Z,7.37
2017-08-27T23:36:43.871Z,6.47
2017-08-27T23:39:10.282Z,6.97
2017-08-27T23:41:36.683Z,7.73
2017-08-27T23:44:03.162Z,7.07
2017-08-27T23:46:29.559Z,7.33
2017-08-27T23:48:55.972Z,10.90
2017-08-27T23:51:22.372Z,7.43
2017-08-27T23:53:48.811Z,7.37
2017-08-27T23:56:15.215Z,6.87
2017-08-27T23:58:41.615Z,7.77
